createdAt,value
2022-12-24T00:00:33.269Z,9.680928
2022-12-24T00:01:33.145Z,9.681251
2022-12-24T00:02:33.234Z,9.681502
2022-12-24T00:03:33.261Z,9.681666
2022-12-24T00:04:33.113Z,9.681618
2022-12-24T00:05:33.106Z,9.681621
2022-12-24T00:06:33.121Z,9.681191
2022-12-24T00:07:33.118Z,9.680964
2022-12-24T00:08:33.084Z,9.680869
2022-12-24T00:09:33.074Z,9.680943
2022-12-24T00:10:33.082Z,9.681011
2022-12-24T00:11:33.077Z,9.681065
2022-12-24T00:12:33.069Z,9.681170
2022-12-24T00:13:33.079Z,9.681646
2022-12-24T00:14:33.050Z,9.681902
2022-12-24T00:15:33.051Z,9.681749
2022-12-24T00:16:33.074Z,9.681321
2022-12-24T00:17:33.050Z,9.680960
2022-12-24T00:18:33.038Z,9.681076
2022-12-24T00:19:33.037Z,9.680914
2022-12-24T00:20:33.023Z,9.681603
2022-12-24T00:21:33.001Z,9.680764
2022-12-24T00:22:32.992Z,9.680556
2022-12-24T00:23:33.005Z,9.681274
2022-12-24T00:24:33.016Z,9.681438
2022-12-24T00:25:32.998Z,9.681614
2022-12-24T00:26:33.006Z,9.681451
2022-12-24T00:27:32.964Z,9.681080
2022-12-24T00:28:32.971Z,9.680778
2022-12-24T00:29:32.956Z,9.681037
2022-12-24T00:30:32.999Z,9.681114
2022-12-24T00:31:33.010Z,9.681469
2022-12-24T00:32:32.964Z,9.681334
2022-12-24T00:33:32.944Z,9.681469
2022-12-24T00:34:32.940Z,9.681355
2022-12-24T00:35:32.930Z,9.681277
2022-12-24T00:36:32.954Z,9.680997
2022-12-24T00:37:32.957Z,9.681230
2022-12-24T00:38:32.899Z,9.681091
2022-12-24T00:39:32.942Z,9.681039
2022-12-24T00:40:32.946Z,9.681021
2022-12-24T00:41:32.897Z,9.681059
2022-12-24T00:42:32.872Z,9.681065
2022-12-24T00:43:32.898Z,9.680753
2022-12-24T00:44:32.871Z,9.681333
2022-12-24T00:45:32.888Z,9.680571
2022-12-24T00:46:32.970Z,9.681288
2022-12-24T00:47:32.908Z,9.681245
2022-12-24T00:48:32.873Z,9.681295
2022-12-24T00:49:32.880Z,9.680408
2022-12-24T00:50:32.819Z,9.680866
2022-12-24T00:51:32.955Z,9.681355
2022-12-24T00:52:32.840Z,9.681015
2022-12-24T00:53:32.830Z,9.680900
2022-12-24T00:54:32.806Z,9.681090
2022-12-24T00:55:32.835Z,9.681469
2022-12-24T00:56:32.822Z,9.681662
2022-12-24T00:57:32.810Z,9.680767
2022-12-24T00:58:32.802Z,9.680537
2022-12-24T00:59:32.784Z,9.681010
2022-12-24T01:00:32.770Z,9.681398
2022-12-24T01:01:32.893Z,9.681471
2022-12-24T01:02:32.990Z,9.681400
2022-12-24T01:03:32.813Z,9.681474
2022-12-24T01:04:32.748Z,9.681202
2022-12-24T01:05:32.757Z,9.680817
2022-12-24T01:06:32.738Z,9.680896
2022-12-24T01:07:32.726Z,9.681211
2022-12-24T01:08:32.712Z,9.681765
2022-12-24T01:09:32.714Z,9.681744
2022-12-24T01:10:32.694Z,9.681380
2022-12-24T01:11:32.692Z,9.681328
2022-12-24T01:12:32.681Z,9.680884
2022-12-24T01:13:32.737Z,9.680820
2022-12-24T01:14:32.663Z,9.680698
2022-12-24T01:15:32.692Z,9.681136
2022-12-24T01:16:32.765Z,9.681161
2022-12-24T01:17:32.645Z,9.681415
2022-12-24T01:18:32.662Z,9.681042
2022-12-24T01:19:32.656Z,9.681009
2022-12-24T01:20:32.631Z,9.681295
2022-12-24T01:21:32.638Z,9.681124
2022-12-24T01:22:32.618Z,9.680949
2022-12-24T01:23:32.623Z,9.680782
2022-12-24T01:24:32.620Z,9.680715
2022-12-24T01:25:32.595Z,9.681047
2022-12-24T01:26:32.636Z,9.680836
2022-12-24T01:27:32.622Z,9.680997
2022-12-24T01:28:32.580Z,9.681093
2022-12-24T01:29:32.582Z,9.681114
2022-12-24T01:30:32.565Z,9.680873
2022-12-24T01:31:32.605Z,9.680853
2022-12-24T01:32:32.559Z,9.680788
2022-12-24T01:33:32.563Z,9.680613
2022-12-24T01:34:32.543Z,9.680870
2022-12-24T01:35:32.549Z,9.680640
2022-12-24T01:36:32.533Z,9.680730
2022-12-24T01:37:32.542Z,9.681115
2022-12-24T01:38:32.549Z,9.681609
2022-12-24T01:39:32.520Z,9.681067
2022-12-24T01:40:32.504Z,9.680956
2022-12-24T01:41:32.519Z,9.680956
2022-12-24T01:42:32.486Z,9.680956
2022-12-24T01:43:32.516Z,9.680956
2022-12-24T01:44:36.713Z,9.680956
2022-12-24T01:45:32.489Z,9.680956
2022-12-24T01:46:32.578Z,9.680925
2022-12-24T01:47:32.472Z,9.681297
2022-12-24T01:48:32.450Z,9.680660
2022-12-24T01:49:32.448Z,9.680683
2022-12-24T01:50:32.448Z,9.681608
2022-12-24T01:51:32.432Z,9.680818
2022-12-24T01:52:32.469Z,9.680686
2022-12-24T01:53:32.447Z,9.680618
2022-12-24T01:54:32.439Z,9.681066
2022-12-24T01:55:32.413Z,9.680989
2022-12-24T01:56:32.403Z,9.680863
2022-12-24T01:57:32.409Z,9.681218
2022-12-24T01:58:32.394Z,9.681289
2022-12-24T01:59:32.419Z,9.681237
2022-12-24T02:00:32.382Z,9.680915
2022-12-24T02:01:32.471Z,9.681056
2022-12-24T02:02:32.521Z,9.681255
2022-12-24T02:03:32.421Z,9.681228
2022-12-24T02:04:32.366Z,9.680583
2022-12-24T02:05:32.356Z,9.681075
2022-12-24T02:06:32.336Z,9.681129
2022-12-24T02:07:32.347Z,9.681129
2022-12-24T02:08:32.328Z,9.680965
2022-12-24T02:09:32.337Z,9.680533
2022-12-24T02:10:32.333Z,9.680703
2022-12-24T02:11:32.317Z,9.681945
2022-12-24T02:12:32.298Z,9.681945
2022-12-24T02:13:32.316Z,9.681945
2022-12-24T02:14:32.316Z,9.681945
2022-12-24T02:15:32.282Z,9.681945
2022-12-24T02:16:32.367Z,9.681945
2022-12-24T02:17:32.289Z,9.681945
2022-12-24T02:18:32.284Z,9.681945
2022-12-24T02:19:32.271Z,9.681945
2022-12-24T02:20:32.275Z,9.681945
2022-12-24T02:21:32.246Z,9.681945
2022-12-24T02:22:32.236Z,9.681945
2022-12-24T02:23:32.272Z,9.681945
2022-12-24T02:24:32.224Z,9.681945
2022-12-24T02:25:32.225Z,9.681945
2022-12-24T02:26:32.215Z,9.681945
2022-12-24T02:27:32.220Z,9.681945
2022-12-24T02:28:32.197Z,9.681945
2022-12-24T02:29:32.217Z,9.681945
2022-12-24T02:30:32.183Z,9.681945
2022-12-24T02:31:32.210Z,9.681945
2022-12-24T02:32:32.189Z,9.681945
2022-12-24T02:33:32.163Z,9.681945
2022-12-24T02:34:32.161Z,9.681945
2022-12-24T02:35:32.164Z,9.681945
2022-12-24T02:36:32.162Z,9.681945
2022-12-24T02:37:32.140Z,9.681945
2022-12-24T02:38:32.130Z,9.681945
2022-12-24T02:39:32.116Z,9.681945
2022-12-24T02:40:32.120Z,9.681945
2022-12-24T02:41:32.128Z,9.681945
2022-12-24T02:42:32.097Z,9.681945
2022-12-24T02:43:32.097Z,9.681945
2022-12-24T02:44:32.080Z,9.681945
2022-12-24T02:45:32.079Z,9.681945
2022-12-24T02:46:32.128Z,9.681945
2022-12-24T02:47:34.266Z,9.681945
2022-12-24T02:48:32.080Z,9.681945
2022-12-24T02:49:32.043Z,9.681945
2022-12-24T02:50:32.050Z,9.681945
2022-12-24T02:51:32.039Z,9.681945
2022-12-24T02:52:32.026Z,9.681945
2022-12-24T02:53:32.046Z,9.681945
2022-12-24T02:54:32.012Z,9.681945
2022-12-24T02:55:32.024Z,9.681945
2022-12-24T02:56:32.013Z,9.681945
2022-12-24T02:57:32.003Z,9.681945
2022-12-24T02:58:31.993Z,9.681945
2022-12-24T02:59:31.988Z,9.681945
2022-12-24T03:00:32.027Z,9.681945
2022-12-24T03:01:32.189Z,9.681945
2022-12-24T03:02:32.095Z,9.681945
2022-12-24T03:03:31.954Z,9.681945
2022-12-24T03:04:31.955Z,9.681945
2022-12-24T03:05:31.961Z,9.681945
2022-12-24T03:06:31.929Z,9.681945
2022-12-24T03:07:31.943Z,9.681945
2022-12-24T03:08:31.917Z,9.681945
2022-12-24T03:09:31.920Z,9.681945
2022-12-24T03:10:31.913Z,9.681945
2022-12-24T03:11:31.888Z,9.681945
2022-12-24T03:12:31.930Z,9.681945
2022-12-24T03:13:31.897Z,9.681945
2022-12-24T03:14:31.881Z,9.681945
2022-12-24T03:15:31.876Z,9.681945
2022-12-24T03:16:31.939Z,9.681945
2022-12-24T03:17:31.867Z,9.681945
2022-12-24T03:18:31.871Z,9.681945
2022-12-24T03:19:31.843Z,9.681945
2022-12-24T03:20:31.856Z,9.681945
2022-12-24T03:21:31.833Z,9.681945
2022-12-24T03:22:31.821Z,9.681945
2022-12-24T03:23:31.873Z,9.681945
2022-12-24T03:24:31.815Z,9.681945
2022-12-24T03:25:31.802Z,9.681945
2022-12-24T03:26:31.823Z,9.681945
2022-12-24T03:27:31.802Z,9.681945
2022-12-24T03:28:31.786Z,9.681945
2022-12-24T03:29:31.792Z,9.681945
2022-12-24T03:30:31.792Z,9.681945
2022-12-24T03:31:31.826Z,9.681945
2022-12-24T03:32:31.766Z,9.681945
2022-12-24T03:33:31.767Z,9.681945
2022-12-24T03:34:31.750Z,9.681945
2022-12-24T03:35:31.769Z,9.681945
2022-12-24T03:36:31.743Z,9.681945
2022-12-24T03:37:31.741Z,9.681945
2022-12-24T03:38:31.733Z,9.681945
2022-12-24T03:39:31.726Z,9.681945
2022-12-24T03:40:31.703Z,9.681945
2022-12-24T03:41:31.725Z,9.681945
2022-12-24T03:42:31.700Z,9.681945
2022-12-24T03:43:31.699Z,9.681945
2022-12-24T03:44:31.683Z,9.681945
2022-12-24T03:45:31.731Z,9.681945
2022-12-24T03:46:31.667Z,9.681945
2022-12-24T03:47:31.680Z,9.681945
2022-12-24T03:48:32.852Z,9.681945
2022-12-24T03:49:31.651Z,9.681945
2022-12-24T03:50:31.643Z,9.681945
2022-12-24T03:51:31.645Z,9.681945
2022-12-24T03:52:31.652Z,9.681945
2022-12-24T03:53:31.661Z,9.681945
2022-12-24T03:54:31.646Z,9.681945
2022-12-24T03:55:31.616Z,9.681945
2022-12-24T03:56:31.611Z,9.681945
2022-12-24T03:57:31.606Z,9.681945
2022-12-24T03:58:31.600Z,9.681945
2022-12-24T03:59:31.587Z,9.681945
2022-12-24T04:00:31.611Z,9.681945
2022-12-24T04:01:31.628Z,9.681945
2022-12-24T04:02:31.668Z,9.681945
2022-12-24T04:03:31.662Z,9.681945
2022-12-24T04:04:31.554Z,9.681945
2022-12-24T04:05:31.575Z,9.681945
2022-12-24T04:06:31.577Z,9.681945
2022-12-24T04:07:31.539Z,9.681945
2022-12-24T04:08:31.533Z,9.681945
2022-12-24T04:09:31.525Z,9.681945
2022-12-24T04:10:31.508Z,9.681945
2022-12-24T04:11:31.533Z,9.681945
2022-12-24T04:12:31.529Z,9.681945
2022-12-24T04:13:31.524Z,9.681945
2022-12-24T04:14:31.499Z,9.681945
2022-12-24T04:15:31.484Z,9.681945
2022-12-24T04:16:31.605Z,9.681945
2022-12-24T04:17:31.507Z,9.681945
2022-12-24T04:18:31.486Z,9.681945
2022-12-24T04:19:31.469Z,9.681945
2022-12-24T04:20:31.450Z,9.681945
2022-12-24T04:21:31.450Z,9.681945
2022-12-24T04:22:31.472Z,9.681945
2022-12-24T04:23:31.443Z,9.681945
2022-12-24T04:24:31.432Z,9.681945
2022-12-24T04:25:31.451Z,9.681945
2022-12-24T04:26:31.411Z,9.681945
2022-12-24T04:27:31.403Z,9.681945
2022-12-24T04:28:31.389Z,9.681945
2022-12-24T04:29:31.412Z,9.681945
2022-12-24T04:30:31.411Z,9.681945
2022-12-24T04:31:31.426Z,9.681945
2022-12-24T04:32:31.384Z,9.681945
2022-12-24T04:33:31.371Z,9.681945
2022-12-24T04:34:31.367Z,9.681945
2022-12-24T04:35:31.354Z,9.681945
2022-12-24T04:36:31.371Z,9.681945
2022-12-24T04:37:31.380Z,9.681945
2022-12-24T04:38:31.341Z,9.681945
2022-12-24T04:39:31.328Z,9.681945
2022-12-24T04:40:31.317Z,9.681945
2022-12-24T04:41:31.312Z,9.681945
2022-12-24T04:42:31.332Z,9.681945
2022-12-24T04:43:31.303Z,9.681945
2022-12-24T04:44:31.292Z,9.681945
2022-12-24T04:45:31.375Z,9.681945
2022-12-24T04:46:31.286Z,9.681945
2022-12-24T04:47:31.302Z,9.681945
2022-12-24T04:48:31.272Z,9.681945
2022-12-24T04:49:31.272Z,9.681945
2022-12-24T04:50:31.274Z,9.681945
2022-12-24T04:51:31.256Z,9.681945
2022-12-24T04:52:31.264Z,9.681945
2022-12-24T04:53:31.245Z,9.681945
2022-12-24T04:54:31.242Z,9.681945
2022-12-24T04:55:31.220Z,9.681945
2022-12-24T04:56:31.216Z,9.681945
2022-12-24T04:57:31.209Z,9.681945
2022-12-24T04:58:31.208Z,9.681945
2022-12-24T04:59:31.207Z,9.681945
2022-12-24T05:00:31.210Z,9.681945
2022-12-24T05:01:31.334Z,9.681945
2022-12-24T05:02:31.367Z,9.681945
2022-12-24T05:03:31.252Z,9.681945
2022-12-24T05:04:31.174Z,9.681945
2022-12-24T05:05:31.168Z,9.681945
2022-12-24T05:06:31.173Z,9.681945
2022-12-24T05:07:31.146Z,9.681945
2022-12-24T05:08:31.143Z,9.681945
2022-12-24T05:09:31.160Z,9.681945
2022-12-24T05:10:31.135Z,9.681945
2022-12-24T05:11:31.169Z,9.681945
2022-12-24T05:12:31.104Z,9.681945
2022-12-24T05:13:40.440Z,9.681945
2022-12-24T05:14:32.119Z,9.681945
2022-12-24T05:15:31.107Z,9.681945
2022-12-24T05:16:31.155Z,9.681945
2022-12-24T05:17:31.077Z,9.681945
2022-12-24T05:18:31.066Z,9.681945
2022-12-24T05:19:31.075Z,9.681945
2022-12-24T05:20:31.050Z,9.681945
2022-12-24T05:21:31.049Z,9.681945
2022-12-24T05:22:31.087Z,9.681945
2022-12-24T05:23:31.045Z,9.681945
2022-12-24T05:24:31.023Z,9.681945
2022-12-24T05:25:31.034Z,9.681945
2022-12-24T05:26:31.040Z,9.681945
2022-12-24T05:27:31.014Z,9.681945
2022-12-24T05:28:31.009Z,9.681945
2022-12-24T05:29:31.009Z,9.681945
2022-12-24T05:30:31.051Z,9.681945
2022-12-24T05:31:30.992Z,9.681945
2022-12-24T05:32:31.014Z,9.681945
2022-12-24T05:33:30.968Z,9.681945
2022-12-24T05:34:30.958Z,9.681945
2022-12-24T05:35:30.953Z,9.681945
2022-12-24T05:36:30.951Z,9.681945
2022-12-24T05:37:30.937Z,9.681945
2022-12-24T05:38:30.947Z,9.681945
2022-12-24T05:39:30.925Z,9.681945
2022-12-24T05:40:30.920Z,9.681945
2022-12-24T05:41:30.911Z,9.681945
2022-12-24T05:42:30.930Z,9.681945
2022-12-24T05:43:30.922Z,9.681945
2022-12-24T05:44:30.908Z,9.681945
2022-12-24T05:45:30.884Z,9.681945
2022-12-24T05:46:30.928Z,9.681945
2022-12-24T05:47:30.874Z,9.681945
2022-12-24T05:48:30.872Z,9.681945
2022-12-24T05:49:30.881Z,9.681945
2022-12-24T05:50:30.858Z,9.681945
2022-12-24T05:51:30.858Z,9.681945
2022-12-24T05:52:30.846Z,9.681945
2022-12-24T05:53:30.871Z,9.681945
2022-12-24T05:54:30.832Z,9.681945
2022-12-24T05:55:30.830Z,9.681945
2022-12-24T05:56:30.810Z,9.681945
2022-12-24T05:57:30.809Z,9.681945
2022-12-24T05:58:30.799Z,9.681945
2022-12-24T05:59:30.838Z,9.681945
2022-12-24T06:00:30.805Z,9.681945
2022-12-24T06:01:30.804Z,9.681945
2022-12-24T06:02:30.893Z,9.681945
2022-12-24T06:03:30.757Z,9.681945
2022-12-24T06:04:30.770Z,9.681945
2022-12-24T06:05:30.781Z,9.681945
2022-12-24T06:06:30.782Z,9.681945
2022-12-24T06:07:30.753Z,9.681945
2022-12-24T06:08:30.717Z,9.681945
2022-12-24T06:09:30.739Z,9.681945
2022-12-24T06:10:30.704Z,9.681945
2022-12-24T06:11:30.731Z,9.681945
2022-12-24T06:12:30.742Z,9.681945
2022-12-24T06:33:40.943Z,9.681231
2022-12-24T06:34:40.934Z,9.681562
2022-12-24T06:35:40.948Z,9.681562
2022-12-24T06:36:40.922Z,9.681095
2022-12-24T06:37:40.942Z,9.681101
2022-12-24T06:38:40.908Z,9.681394
2022-12-24T06:39:40.901Z,9.681562
2022-12-24T06:40:40.905Z,9.681346
2022-12-24T06:41:40.900Z,9.681097
2022-12-24T06:42:40.887Z,9.681078
2022-12-24T06:43:40.919Z,9.681649
2022-12-24T06:44:40.876Z,9.681088
2022-12-24T06:45:40.877Z,9.681395
2022-12-24T06:46:40.950Z,9.681170
2022-12-24T06:47:40.855Z,9.681713
2022-12-24T06:48:40.843Z,9.681537
2022-12-24T06:49:40.868Z,9.681254
2022-12-24T06:50:40.831Z,9.681049
2022-12-24T06:51:40.820Z,9.681313
2022-12-24T06:52:40.813Z,9.681032
2022-12-24T06:53:40.823Z,9.681235
2022-12-24T06:54:40.812Z,9.681244
2022-12-24T06:55:40.838Z,9.681292
2022-12-24T06:56:40.788Z,9.681247
2022-12-24T06:57:40.781Z,9.681182
2022-12-24T06:58:40.817Z,9.681398
2022-12-24T06:59:40.787Z,9.681623
2022-12-24T07:00:40.776Z,9.681497
2022-12-24T07:01:40.881Z,9.681106
2022-12-24T07:02:40.793Z,9.680946
2022-12-24T07:03:40.822Z,9.681353
2022-12-24T07:04:40.760Z,9.681276
2022-12-24T07:05:40.758Z,9.681121
2022-12-24T07:06:40.725Z,9.680950
2022-12-24T07:07:40.721Z,9.681211
2022-12-24T07:08:40.720Z,9.681417
2022-12-24T07:09:40.715Z,9.681381
2022-12-24T07:10:40.750Z,9.681267
2022-12-24T07:11:40.723Z,9.681222
2022-12-24T07:12:40.720Z,9.681285
2022-12-24T07:13:40.690Z,9.681377
2022-12-24T07:14:40.678Z,9.681193
2022-12-24T07:15:40.777Z,9.680993
2022-12-24T07:16:40.814Z,9.681204
2022-12-24T07:17:40.750Z,9.681234
2022-12-24T07:18:40.686Z,9.681232
2022-12-24T07:19:40.660Z,9.681267
2022-12-24T07:20:40.644Z,9.681285
2022-12-24T07:21:40.644Z,9.681256
2022-12-24T07:22:40.651Z,9.680960
2022-12-24T07:23:40.647Z,9.681169
2022-12-24T07:24:40.617Z,9.681431
2022-12-24T07:25:40.616Z,9.681348
2022-12-24T07:26:40.632Z,9.681676
2022-12-24T07:27:40.597Z,9.681949
2022-12-24T07:28:40.625Z,9.681825
2022-12-24T07:29:40.586Z,9.681543
2022-12-24T07:30:40.585Z,9.681573
2022-12-24T07:31:40.645Z,9.681618
2022-12-24T07:32:40.604Z,9.682061
2022-12-24T07:33:40.559Z,9.681064
2022-12-24T07:34:40.583Z,9.681658
2022-12-24T07:35:40.546Z,9.681658
2022-12-24T07:36:40.543Z,9.681658
2022-12-24T07:37:40.563Z,9.681658
2022-12-24T07:38:40.539Z,9.681658
2022-12-24T07:39:40.536Z,9.681658
2022-12-24T07:40:40.541Z,9.681658
2022-12-24T07:41:41.881Z,9.681658
2022-12-24T07:42:40.528Z,9.681658
2022-12-24T07:43:40.506Z,9.681658
2022-12-24T07:44:40.506Z,9.681658
2022-12-24T07:45:40.486Z,9.681658
2022-12-24T07:46:40.554Z,9.681658
2022-12-24T07:47:40.474Z,9.681658
2022-12-24T07:48:40.475Z,9.681658
2022-12-24T07:49:40.462Z,9.681658
2022-12-24T07:50:40.488Z,9.681658
2022-12-24T07:51:40.454Z,9.681658
2022-12-24T07:52:40.443Z,9.681658
2022-12-24T07:53:40.452Z,9.681658
2022-12-24T07:54:40.433Z,9.681658
2022-12-24T07:55:40.430Z,9.681658
2022-12-24T07:56:40.444Z,9.681658
2022-12-24T07:57:40.436Z,9.681658
2022-12-24T07:58:40.399Z,9.681658
2022-12-24T07:59:40.401Z,9.681658
2022-12-24T08:00:40.388Z,9.681658
2022-12-24T08:01:40.501Z,9.681658
2022-12-24T08:02:40.567Z,9.681658
2022-12-24T08:03:40.517Z,9.681658
2022-12-24T08:04:40.396Z,9.681658
2022-12-24T08:05:40.360Z,9.681658
2022-12-24T08:06:40.391Z,9.681658
2022-12-24T08:07:40.364Z,9.681658
2022-12-24T08:08:40.372Z,9.681658
2022-12-24T08:09:40.354Z,9.681658
2022-12-24T08:10:40.351Z,9.681658
2022-12-24T08:11:42.454Z,9.681658
2022-12-24T08:12:41.336Z,9.681658
2022-12-24T08:13:40.334Z,9.681658
2022-12-24T08:14:40.310Z,9.681658
2022-12-24T08:15:40.307Z,9.681658
2022-12-24T08:16:40.329Z,9.681658
2022-12-24T08:17:40.308Z,9.681658
2022-12-24T08:18:40.283Z,9.681658
2022-12-24T08:19:40.309Z,9.681658
2022-12-24T08:20:40.269Z,9.681658
2022-12-24T08:21:40.274Z,9.681658
2022-12-24T08:22:40.267Z,9.681658
2022-12-24T08:23:40.278Z,9.681658
2022-12-24T08:24:40.243Z,9.681658
2022-12-24T08:25:40.255Z,9.681658
2022-12-24T08:26:40.244Z,9.681658
2022-12-24T08:27:40.247Z,9.681658
2022-12-24T08:28:40.232Z,9.681658
2022-12-24T08:29:40.226Z,9.681658
2022-12-24T08:30:40.217Z,9.681658
2022-12-24T08:31:40.309Z,9.681658
2022-12-24T08:32:40.218Z,9.681658
2022-12-24T08:33:40.190Z,9.681658
2022-12-24T08:34:40.279Z,9.681658
2022-12-24T08:35:40.174Z,9.681658
2022-12-24T08:36:40.157Z,9.681658
2022-12-24T08:37:40.189Z,9.681658
2022-12-24T08:38:40.189Z,9.681658
2022-12-24T08:39:40.160Z,9.681658
2022-12-24T08:40:40.145Z,9.681658
2022-12-24T08:41:40.147Z,9.681658
2022-12-24T08:42:40.173Z,9.681658
2022-12-24T08:43:40.148Z,9.681658
2022-12-24T08:44:40.142Z,9.681658
2022-12-24T08:45:41.126Z,9.681658
2022-12-24T08:46:40.192Z,9.681658
2022-12-24T08:47:40.110Z,9.681658
2022-12-24T08:48:40.119Z,9.681658
2022-12-24T08:49:40.110Z,9.681658
2022-12-24T08:50:40.082Z,9.681658
2022-12-24T08:51:40.078Z,9.681658
2022-12-24T08:52:40.112Z,9.681658
2022-12-24T08:53:40.060Z,9.681658
2022-12-24T08:54:40.099Z,9.681658
2022-12-24T08:55:40.075Z,9.681658
2022-12-24T08:56:40.072Z,9.681658
2022-12-24T08:57:40.053Z,9.681658
2022-12-24T08:58:40.031Z,9.681658
2022-12-24T08:59:40.046Z,9.681658
2022-12-24T09:00:40.097Z,9.681658
2022-12-24T09:01:40.072Z,9.681658
2022-12-24T09:02:40.167Z,9.681658
2022-12-24T09:03:40.049Z,9.681658
2022-12-24T09:04:40.018Z,9.681658
2022-12-24T09:05:39.984Z,9.681658
2022-12-24T09:06:40.004Z,9.681658
2022-12-24T09:07:39.979Z,9.681658
2022-12-24T09:08:39.962Z,9.681658
2022-12-24T09:09:40.000Z,9.681658
2022-12-24T09:10:39.933Z,9.681658
2022-12-24T09:11:39.958Z,9.681658
2022-12-24T09:12:39.935Z,9.681658
2022-12-24T09:13:39.968Z,9.681658
2022-12-24T09:14:39.920Z,9.681658
2022-12-24T09:15:39.932Z,9.681658
2022-12-24T09:16:39.983Z,9.681658
2022-12-24T09:17:39.903Z,9.681658
2022-12-24T09:18:40.088Z,9.681658
2022-12-24T09:19:39.891Z,9.681658
2022-12-24T09:20:45.744Z,9.681658
2022-12-24T09:21:40.885Z,9.681658
2022-12-24T09:22:39.859Z,9.681658
2022-12-24T09:23:39.863Z,9.681658
2022-12-24T09:24:39.873Z,9.681658
2022-12-24T09:25:39.844Z,9.681658
2022-12-24T09:26:40.028Z,9.681658
2022-12-24T09:27:39.831Z,9.681658
2022-12-24T09:28:39.850Z,9.681658
2022-12-24T09:29:39.823Z,9.681658
2022-12-24T09:30:39.821Z,9.681658
2022-12-24T09:31:39.903Z,9.681658
2022-12-24T09:32:39.805Z,9.681658
2022-12-24T09:33:39.831Z,9.681658
2022-12-24T09:34:39.785Z,9.681658
2022-12-24T09:35:39.806Z,9.681658
2022-12-24T09:36:39.777Z,9.681658
2022-12-24T09:37:39.813Z,9.681658
2022-12-24T09:38:39.778Z,9.681658
2022-12-24T09:39:39.793Z,9.681658
2022-12-24T09:40:39.754Z,9.681658
2022-12-24T09:41:40.495Z,9.681658
2022-12-24T09:42:39.764Z,9.681658
2022-12-24T09:43:39.735Z,9.681658
2022-12-24T09:44:39.740Z,9.681658
2022-12-24T09:45:39.816Z,9.681658
2022-12-24T09:46:39.720Z,9.681658
2022-12-24T09:47:39.733Z,9.681658
2022-12-24T09:48:39.733Z,9.681658
2022-12-24T09:49:39.829Z,9.681658
2022-12-24T09:50:39.733Z,9.681658
2022-12-24T09:51:39.707Z,9.681658
2022-12-24T09:52:39.702Z,9.681658
2022-12-24T09:53:39.703Z,9.681658
2022-12-24T09:54:43.050Z,9.681658
2022-12-24T09:55:40.741Z,9.681658
2022-12-24T09:56:39.695Z,9.681658
2022-12-24T09:57:39.657Z,9.681658
2022-12-24T09:58:39.662Z,9.681658
2022-12-24T09:59:39.653Z,9.681658
2022-12-24T10:00:43.195Z,9.681658
2022-12-24T10:01:40.732Z,9.681658
2022-12-24T10:02:39.703Z,9.681658
2022-12-24T10:03:39.636Z,9.681658
2022-12-24T10:04:39.603Z,9.681658
2022-12-24T10:05:39.609Z,9.681658
2022-12-24T10:06:39.613Z,9.681658
2022-12-24T10:07:39.609Z,9.681658
2022-12-24T10:08:39.590Z,9.681658
2022-12-24T10:09:39.567Z,9.681658
2022-12-24T10:10:39.568Z,9.681658
2022-12-24T10:11:39.593Z,9.681658
2022-12-24T10:12:43.117Z,9.681658
2022-12-24T10:13:40.551Z,9.681658
2022-12-24T10:14:39.534Z,9.681658
2022-12-24T10:15:39.540Z,9.681658
2022-12-24T10:16:39.573Z,9.681658
2022-12-24T10:17:39.539Z,9.681658
2022-12-24T10:18:42.966Z,9.681658
2022-12-24T10:19:40.578Z,9.681658
2022-12-24T10:20:39.501Z,9.681658
2022-12-24T10:21:39.502Z,9.681658
2022-12-24T10:22:39.496Z,9.681658
2022-12-24T10:23:39.501Z,9.681658
2022-12-24T10:24:43.421Z,9.681658
2022-12-24T10:25:40.480Z,9.681658
2022-12-24T10:26:39.488Z,9.681658
2022-12-24T10:27:39.511Z,9.681658
2022-12-24T10:28:39.460Z,9.681658
2022-12-24T10:29:39.465Z,9.681658
2022-12-24T10:30:39.494Z,9.681658
2022-12-24T10:31:39.428Z,9.681658
2022-12-24T10:32:39.435Z,9.681658
2022-12-24T10:33:39.458Z,9.681658
2022-12-24T10:34:39.411Z,9.681658
2022-12-24T10:35:39.430Z,9.681658
2022-12-24T10:36:39.397Z,9.681658
2022-12-24T10:37:39.393Z,9.681658
2022-12-24T10:38:39.391Z,9.681658
2022-12-24T10:39:39.423Z,9.681658
2022-12-24T10:40:39.372Z,9.681658
2022-12-24T10:41:39.416Z,9.681658
2022-12-24T10:42:42.115Z,9.681658
2022-12-24T10:43:40.373Z,9.681658
2022-12-24T10:44:39.361Z,9.681658
2022-12-24T10:45:39.361Z,9.681658
2022-12-24T10:46:39.460Z,9.681658
2022-12-24T10:47:39.346Z,9.681658
2022-12-24T10:48:42.369Z,9.681658
2022-12-24T10:49:40.315Z,9.681658
2022-12-24T10:50:39.334Z,9.681658
2022-12-24T10:51:39.332Z,9.681658
2022-12-24T10:52:39.316Z,9.681658
2022-12-24T10:53:39.328Z,9.681658
2022-12-24T10:54:39.543Z,9.681658
2022-12-24T10:55:39.292Z,9.681658
2022-12-24T10:56:39.276Z,9.681658
2022-12-24T10:57:39.267Z,9.681658
2022-12-24T10:58:39.280Z,9.681658
2022-12-24T10:59:39.269Z,9.681658
2022-12-24T11:00:39.242Z,9.681658
2022-12-24T11:01:39.325Z,9.681658
2022-12-24T11:02:39.320Z,9.681658
2022-12-24T11:03:39.391Z,9.681658
2022-12-24T11:04:39.228Z,9.681658
2022-12-24T11:05:39.238Z,9.681658
2022-12-24T11:06:40.812Z,9.681658
2022-12-24T11:07:39.200Z,9.681658
2022-12-24T11:08:39.197Z,9.681658
2022-12-24T11:09:39.208Z,9.681658
2022-12-24T11:10:39.182Z,9.681658
2022-12-24T11:11:39.183Z,9.681658
2022-12-24T11:12:39.175Z,9.681658
2022-12-24T11:13:39.704Z,9.681658
2022-12-24T11:14:39.178Z,9.681658
2022-12-24T11:15:39.213Z,9.681658
2022-12-24T11:16:39.145Z,9.681658
2022-12-24T11:17:39.137Z,9.681658
2022-12-24T11:18:39.150Z,9.681658
2022-12-24T11:19:39.127Z,9.681658
2022-12-24T11:20:39.155Z,9.681658
2022-12-24T11:21:39.107Z,9.681658
2022-12-24T11:22:39.102Z,9.681658
2022-12-24T11:23:39.132Z,9.681658
2022-12-24T11:24:39.612Z,9.681658
2022-12-24T11:25:39.086Z,9.681658
2022-12-24T11:26:39.080Z,9.681658
2022-12-24T11:27:39.073Z,9.681658
2022-12-24T11:28:39.072Z,9.681658
2022-12-24T11:29:39.067Z,9.681658
2022-12-24T11:30:39.143Z,9.681658
2022-12-24T11:31:39.196Z,9.681658
2022-12-24T11:32:39.038Z,9.681658
2022-12-24T11:33:39.054Z,9.681658
2022-12-24T11:34:39.025Z,9.681658
2022-12-24T11:35:39.031Z,9.681658
2022-12-24T11:36:39.033Z,9.681658
2022-12-24T11:37:39.008Z,9.681658
2022-12-24T11:38:39.020Z,9.681658
2022-12-24T11:39:38.984Z,9.681658
2022-12-24T11:40:39.005Z,9.681658
2022-12-24T11:41:38.983Z,9.681658
2022-12-24T11:42:38.975Z,9.681658
2022-12-24T11:43:38.985Z,9.681658
2022-12-24T11:44:38.984Z,9.681658
2022-12-24T11:45:38.956Z,9.681658
2022-12-24T11:46:38.988Z,9.681658
2022-12-24T11:47:38.952Z,9.681658
2022-12-24T11:48:38.966Z,9.681658
2022-12-24T11:49:38.926Z,9.681658
2022-12-24T11:50:38.919Z,9.681658
2022-12-24T11:51:38.969Z,9.681658
2022-12-24T11:52:38.899Z,9.681658
2022-12-24T11:53:38.899Z,9.681658
2022-12-24T11:54:38.886Z,9.681658
2022-12-24T11:55:38.893Z,9.681658
2022-12-24T11:56:38.882Z,9.681658
2022-12-24T11:57:38.901Z,9.681658
2022-12-24T11:58:38.872Z,9.681658
2022-12-24T11:59:38.881Z,9.681658
2022-12-24T12:00:38.850Z,9.681658
2022-12-24T12:01:39.092Z,9.681658
2022-12-24T12:02:38.873Z,9.681658
2022-12-24T12:03:38.887Z,9.681658
2022-12-24T12:04:38.864Z,9.681658